logo
Search for airport 
image banner adimage banner adimage banner ad
image banner ad

YMLGT - Melangata

Located in , Australia

ICAO - , IATA -

Data provided by Airmate  

General information

Coordinates: S27°47'55" E116°52'59"
Elevation is 1438 feet MSL.
Magnetic variation is 0° East
View others Airports in Western Australia

Operational data

Special qualification required
Current time UTC:
Current local time:
Weather at : - ( 0 km )
METAR: ZMCK 180330Z VRB02MPS 9999 SCT030CB SCT033 18/13 Q1004 NOSIG RMK QFE639.1 72 MOP
View NOTAMs / SUP AIP / TFR affecting this airport [VIEW]
Communications frequencies: [VIEW]

Runways:

RWY identifierQFULength (ft)Width (ft)SurfaceLDA (ft)
19189°261081DIRT
01261081DIRT

Airport contact information

Address: Australia

Satellite view of YMLGT